sensor_id;sensor_type;location;lat;lon;timestamp;P1;durP1;ratioP1;P2;durP2;ratioP2
8861;SDS011;4799;50.996;4.754;2022-12-07T00:02:05;19.50;;;17.50;;
8861;SDS011;4799;50.996;4.754;2022-12-07T00:04:30;19.43;;;17.40;;
8861;SDS011;4799;50.996;4.754;2022-12-07T00:06:56;21.17;;;18.97;;
8861;SDS011;4799;50.996;4.754;2022-12-07T00:09:22;21.27;;;18.93;;
8861;SDS011;4799;50.996;4.754;2022-12-07T00:11:51;21.47;;;19.43;;
8861;SDS011;4799;50.996;4.754;2022-12-07T00:14:17;23.10;;;20.90;;
8861;SDS011;4799;50.996;4.754;2022-12-07T00:16:43;21.67;;;19.40;;
8861;SDS011;4799;50.996;4.754;2022-12-07T00:19:10;21.63;;;19.57;;
8861;SDS011;4799;50.996;4.754;2022-12-07T00:21:37;24.20;;;20.70;;
8861;SDS011;4799;50.996;4.754;2022-12-07T00:24:03;25.37;;;22.77;;
8861;SDS011;4799;50.996;4.754;2022-12-07T00:26:32;24.37;;;21.80;;
8861;SDS011;4799;50.996;4.754;2022-12-07T00:29:00;23.63;;;21.33;;
8861;SDS011;4799;50.996;4.754;2022-12-07T00:31:29;24.67;;;22.17;;
8861;SDS011;4799;50.996;4.754;2022-12-07T00:33:59;25.40;;;22.77;;
8861;SDS011;4799;50.996;4.754;2022-12-07T00:36:25;24.03;;;21.43;;
8861;SDS011;4799;50.996;4.754;2022-12-07T00:38:51;25.73;;;22.93;;
8861;SDS011;4799;50.996;4.754;2022-12-07T00:41:18;23.50;;;21.20;;
8861;SDS011;4799;50.996;4.754;2022-12-07T00:43:46;24.40;;;21.97;;
8861;SDS011;4799;50.996;4.754;2022-12-07T00:46:13;23.30;;;20.87;;
8861;SDS011;4799;50.996;4.754;2022-12-07T00:48:39;23.20;;;20.80;;
8861;SDS011;4799;50.996;4.754;2022-12-07T00:51:06;23.13;;;20.83;;
8861;SDS011;4799;50.996;4.754;2022-12-07T00:53:35;23.27;;;20.97;;
8861;SDS011;4799;50.996;4.754;2022-12-07T00:56:05;25.37;;;22.70;;
8861;SDS011;4799;50.996;4.754;2022-12-07T00:58:32;25.47;;;21.37;;
8861;SDS011;4799;50.996;4.754;2022-12-07T01:01:02;22.83;;;20.63;;
8861;SDS011;4799;50.996;4.754;2022-12-07T01:03:29;22.50;;;20.27;;
8861;SDS011;4799;50.996;4.754;2022-12-07T01:05:56;23.23;;;20.97;;
8861;SDS011;4799;50.996;4.754;2022-12-07T01:08:22;25.50;;;22.80;;
8861;SDS011;4799;50.996;4.754;2022-12-07T01:10:49;23.80;;;21.50;;
8861;SDS011;4799;50.996;4.754;2022-12-07T01:13:22;24.93;;;22.40;;
8861;SDS011;4799;50.996;4.754;2022-12-07T01:15:48;24.83;;;22.53;;
8861;SDS011;4799;50.996;4.754;2022-12-07T01:18:14;25.40;;;22.77;;
8861;SDS011;4799;50.996;4.754;2022-12-07T01:20:39;26.37;;;23.77;;
8861;SDS011;4799;50.996;4.754;2022-12-07T01:23:05;24.77;;;22.17;;
8861;SDS011;4799;50.996;4.754;2022-12-07T01:25:31;25.30;;;22.67;;
8861;SDS011;4799;50.996;4.754;2022-12-07T01:27:57;25.30;;;22.80;;
8861;SDS011;4799;50.996;4.754;2022-12-07T01:30:23;27.20;;;24.60;;
8861;SDS011;4799;50.996;4.754;2022-12-07T01:32:48;25.93;;;23.23;;
8861;SDS011;4799;50.996;4.754;2022-12-07T01:35:14;26.43;;;23.93;;
8861;SDS011;4799;50.996;4.754;2022-12-07T01:37:40;26.27;;;23.67;;
8861;SDS011;4799;50.996;4.754;2022-12-07T01:40:06;26.83;;;24.33;;
8861;SDS011;4799;50.996;4.754;2022-12-07T01:42:33;28.17;;;25.40;;
8861;SDS011;4799;50.996;4.754;2022-12-07T01:47:43;26.87;;;24.27;;
8861;SDS011;4799;50.996;4.754;2022-12-07T01:50:13;26.50;;;23.87;;
8861;SDS011;4799;50.996;4.754;2022-12-07T01:52:39;27.80;;;25.00;;
8861;SDS011;4799;50.996;4.754;2022-12-07T01:55:07;28.90;;;26.20;;
8861;SDS011;4799;50.996;4.754;2022-12-07T01:57:37;26.83;;;24.23;;
8861;SDS011;4799;50.996;4.754;2022-12-07T02:00:08;29.50;;;26.50;;
8861;SDS011;4799;50.996;4.754;2022-12-07T02:02:42;29.60;;;26.57;;
8861;SDS011;4799;50.996;4.754;2022-12-07T02:05:20;28.60;;;25.70;;
8861;SDS011;4799;50.996;4.754;2022-12-07T02:07:49;31.77;;;28.47;;
8861;SDS011;4799;50.996;4.754;2022-12-07T02:12:55;29.57;;;26.57;;
8861;SDS011;4799;50.996;4.754;2022-12-07T02:15:38;29.23;;;26.23;;
8861;SDS011;4799;50.996;4.754;2022-12-07T02:21:07;32.50;;;29.10;;
8861;SDS011;4799;50.996;4.754;2022-12-07T02:31:26;30.07;;;27.13;;
8861;SDS011;4799;50.996;4.754;2022-12-07T02:33:57;33.07;;;29.70;;
8861;SDS011;4799;50.996;4.754;2022-12-07T02:36:32;29.97;;;27.03;;
8861;SDS011;4799;50.996;4.754;2022-12-07T02:41:43;30.17;;;27.17;;
8861;SDS011;4799;50.996;4.754;2022-12-07T02:44:13;30.70;;;27.80;;
8861;SDS011;4799;50.996;4.754;2022-12-07T02:46:44;31.30;;;28.23;;
8861;SDS011;4799;50.996;4.754;2022-12-07T02:49:18;29.80;;;26.47;;
8861;SDS011;4799;50.996;4.754;2022-12-07T02:51:46;29.43;;;26.37;;
8861;SDS011;4799;50.996;4.754;2022-12-07T02:54:16;29.27;;;26.47;;
8861;SDS011;4799;50.996;4.754;2022-12-07T03:07:33;31.60;;;28.23;;
8861;SDS011;4799;50.996;4.754;2022-12-07T03:10:14;28.87;;;25.97;;
8861;SDS011;4799;50.996;4.754;2022-12-07T03:12:45;27.93;;;25.33;;
8861;SDS011;4799;50.996;4.754;2022-12-07T03:15:26;28.43;;;25.63;;
8861;SDS011;4799;50.996;4.754;2022-12-07T03:18:05;29.13;;;26.30;;
8861;SDS011;4799;50.996;4.754;2022-12-07T03:20:32;31.57;;;28.53;;
8861;SDS011;4799;50.996;4.754;2022-12-07T03:23:04;30.77;;;27.87;;
8861;SDS011;4799;50.996;4.754;2022-12-07T03:25:35;28.30;;;25.50;;
8861;SDS011;4799;50.996;4.754;2022-12-07T03:28:06;26.87;;;24.27;;
8861;SDS011;4799;50.996;4.754;2022-12-07T03:30:42;29.30;;;26.27;;
8861;SDS011;4799;50.996;4.754;2022-12-07T03:33:31;26.00;;;23.47;;
8861;SDS011;4799;50.996;4.754;2022-12-07T03:36:04;39.23;;;32.13;;
8861;SDS011;4799;50.996;4.754;2022-12-07T03:38:53;31.43;;;28.33;;
8861;SDS011;4799;50.996;4.754;2022-12-07T03:41:29;34.60;;;31.00;;
8861;SDS011;4799;50.996;4.754;2022-12-07T03:43:58;34.27;;;30.80;;
8861;SDS011;4799;50.996;4.754;2022-12-07T03:49:05;31.47;;;28.20;;
8861;SDS011;4799;50.996;4.754;2022-12-07T03:54:56;32.23;;;28.90;;
8861;SDS011;4799;50.996;4.754;2022-12-07T03:57:26;36.10;;;30.00;;
8861;SDS011;4799;50.996;4.754;2022-12-07T03:59:55;38.50;;;32.63;;
8861;SDS011;4799;50.996;4.754;2022-12-07T04:02:23;35.23;;;31.17;;
8861;SDS011;4799;50.996;4.754;2022-12-07T04:04:52;38.10;;;33.80;;
8861;SDS011;4799;50.996;4.754;2022-12-07T04:07:18;41.57;;;35.30;;
8861;SDS011;4799;50.996;4.754;2022-12-07T04:09:44;36.93;;;33.17;;
8861;SDS011;4799;50.996;4.754;2022-12-07T04:12:11;38.93;;;34.83;;
8861;SDS011;4799;50.996;4.754;2022-12-07T04:14:37;42.37;;;36.73;;
8861;SDS011;4799;50.996;4.754;2022-12-07T04:17:02;37.80;;;33.67;;
8861;SDS011;4799;50.996;4.754;2022-12-07T04:19:29;42.97;;;36.43;;
8861;SDS011;4799;50.996;4.754;2022-12-07T04:21:59;46.03;;;37.50;;
8861;SDS011;4799;50.996;4.754;2022-12-07T04:24:25;43.73;;;35.93;;
8861;SDS011;4799;50.996;4.754;2022-12-07T04:26:52;44.53;;;37.17;;
8861;SDS011;4799;50.996;4.754;2022-12-07T04:29:17;39.13;;;34.90;;
8861;SDS011;4799;50.996;4.754;2022-12-07T04:31:43;56.17;;;44.80;;
8861;SDS011;4799;50.996;4.754;2022-12-07T04:34:10;44.17;;;37.60;;
8861;SDS011;4799;50.996;4.754;2022-12-07T04:36:37;49.27;;;40.27;;
8861;SDS011;4799;50.996;4.754;2022-12-07T04:39:04;45.17;;;39.07;;
8861;SDS011;4799;50.996;4.754;2022-12-07T04:41:30;42.47;;;36.53;;
8861;SDS011;4799;50.996;4.754;2022-12-07T04:43:58;53.90;;;41.83;;
8861;SDS011;4799;50.996;4.754;2022-12-07T04:46:25;46.03;;;39.53;;
8861;SDS011;4799;50.996;4.754;2022-12-07T04:48:53;48.63;;;38.77;;
8861;SDS011;4799;50.996;4.754;2022-12-07T04:51:21;45.87;;;39.03;;
8861;SDS011;4799;50.996;4.754;2022-12-07T04:53:49;48.10;;;39.00;;
8861;SDS011;4799;50.996;4.754;2022-12-07T04:56:16;47.40;;;38.63;;
8861;SDS011;4799;50.996;4.754;2022-12-07T04:58:43;35.90;;;32.07;;
8861;SDS011;4799;50.996;4.754;2022-12-07T05:01:10;44.03;;;37.30;;
8861;SDS011;4799;50.996;4.754;2022-12-07T05:03:36;47.77;;;42.37;;
8861;SDS011;4799;50.996;4.754;2022-12-07T05:06:02;54.63;;;43.63;;
8861;SDS011;4799;50.996;4.754;2022-12-07T05:08:29;51.80;;;43.70;;
8861;SDS011;4799;50.996;4.754;2022-12-07T05:10:55;46.37;;;41.07;;
8861;SDS011;4799;50.996;4.754;2022-12-07T05:13:20;46.97;;;41.90;;
8861;SDS011;4799;50.996;4.754;2022-12-07T05:15:47;49.20;;;41.30;;
8861;SDS011;4799;50.996;4.754;2022-12-07T05:18:13;80.53;;;52.93;;
8861;SDS011;4799;50.996;4.754;2022-12-07T05:20:40;44.57;;;38.03;;
8861;SDS011;4799;50.996;4.754;2022-12-07T05:23:06;40.40;;;36.03;;
8861;SDS011;4799;50.996;4.754;2022-12-07T05:25:32;59.60;;;47.00;;
8861;SDS011;4799;50.996;4.754;2022-12-07T05:27:58;48.47;;;38.70;;
8861;SDS011;4799;50.996;4.754;2022-12-07T05:30:24;42.10;;;36.07;;
8861;SDS011;4799;50.996;4.754;2022-12-07T05:32:51;38.93;;;34.77;;
8861;SDS011;4799;50.996;4.754;2022-12-07T05:35:17;49.97;;;38.23;;
8861;SDS011;4799;50.996;4.754;2022-12-07T05:37:43;42.10;;;34.43;;
8861;SDS011;4799;50.996;4.754;2022-12-07T05:40:09;43.90;;;34.67;;
8861;SDS011;4799;50.996;4.754;2022-12-07T05:42:35;45.33;;;35.93;;
8861;SDS011;4799;50.996;4.754;2022-12-07T05:45:01;49.40;;;38.50;;
8861;SDS011;4799;50.996;4.754;2022-12-07T05:47:27;42.13;;;35.83;;
8861;SDS011;4799;50.996;4.754;2022-12-07T05:49:53;40.20;;;33.03;;
8861;SDS011;4799;50.996;4.754;2022-12-07T05:52:18;50.57;;;38.97;;
8861;SDS011;4799;50.996;4.754;2022-12-07T05:54:44;46.63;;;37.57;;
8861;SDS011;4799;50.996;4.754;2022-12-07T05:57:10;46.43;;;37.93;;
8861;SDS011;4799;50.996;4.754;2022-12-07T05:59:36;51.23;;;40.47;;
8861;SDS011;4799;50.996;4.754;2022-12-07T06:02:06;47.97;;;39.83;;
8861;SDS011;4799;50.996;4.754;2022-12-07T06:04:34;42.00;;;37.20;;
8861;SDS011;4799;50.996;4.754;2022-12-07T06:07:02;40.20;;;35.90;;
8861;SDS011;4799;50.996;4.754;2022-12-07T06:09:28;50.67;;;38.60;;
8861;SDS011;4799;50.996;4.754;2022-12-07T06:11:55;43.00;;;35.10;;
8861;SDS011;4799;50.996;4.754;2022-12-07T06:14:39;41.80;;;34.23;;
8861;SDS011;4799;50.996;4.754;2022-12-07T06:17:05;38.07;;;33.80;;
8861;SDS011;4799;50.996;4.754;2022-12-07T06:19:31;40.70;;;34.03;;
8861;SDS011;4799;50.996;4.754;2022-12-07T06:21:57;41.53;;;33.63;;
8861;SDS011;4799;50.996;4.754;2022-12-07T06:24:23;58.93;;;45.03;;
8861;SDS011;4799;50.996;4.754;2022-12-07T06:26:49;39.37;;;33.80;;
8861;SDS011;4799;50.996;4.754;2022-12-07T06:29:16;49.07;;;36.57;;
8861;SDS011;4799;50.996;4.754;2022-12-07T06:31:42;43.17;;;36.07;;
8861;SDS011;4799;50.996;4.754;2022-12-07T06:34:12;45.77;;;36.83;;
8861;SDS011;4799;50.996;4.754;2022-12-07T06:36:40;40.57;;;34.30;;
8861;SDS011;4799;50.996;4.754;2022-12-07T06:39:06;39.03;;;32.60;;
8861;SDS011;4799;50.996;4.754;2022-12-07T06:41:34;39.87;;;33.47;;
8861;SDS011;4799;50.996;4.754;2022-12-07T06:44:04;37.50;;;33.40;;
8861;SDS011;4799;50.996;4.754;2022-12-07T06:46:30;38.77;;;32.30;;
8861;SDS011;4799;50.996;4.754;2022-12-07T06:48:56;37.60;;;31.67;;
8861;SDS011;4799;50.996;4.754;2022-12-07T06:51:22;34.27;;;30.67;;
8861;SDS011;4799;50.996;4.754;2022-12-07T06:53:48;46.93;;;37.60;;
8861;SDS011;4799;50.996;4.754;2022-12-07T06:56:14;35.77;;;31.53;;
8861;SDS011;4799;50.996;4.754;2022-12-07T06:58:40;35.47;;;31.47;;
8861;SDS011;4799;50.996;4.754;2022-12-07T07:01:10;35.43;;;31.30;;
8861;SDS011;4799;50.996;4.754;2022-12-07T07:03:36;37.83;;;33.63;;
8861;SDS011;4799;50.996;4.754;2022-12-07T07:06:02;38.90;;;34.07;;
8861;SDS011;4799;50.996;4.754;2022-12-07T07:08:28;36.20;;;32.43;;
8861;SDS011;4799;50.996;4.754;2022-12-07T07:10:54;40.00;;;35.57;;
8861;SDS011;4799;50.996;4.754;2022-12-07T07:13:20;40.77;;;34.37;;
8861;SDS011;4799;50.996;4.754;2022-12-07T07:15:45;36.00;;;32.10;;
8861;SDS011;4799;50.996;4.754;2022-12-07T07:18:11;30.50;;;27.23;;
8861;SDS011;4799;50.996;4.754;2022-12-07T07:20:37;34.40;;;29.47;;
8861;SDS011;4799;50.996;4.754;2022-12-07T07:23:03;33.73;;;28.33;;
8861;SDS011;4799;50.996;4.754;2022-12-07T07:25:29;34.33;;;29.83;;
8861;SDS011;4799;50.996;4.754;2022-12-07T07:27:55;30.47;;;27.17;;
8861;SDS011;4799;50.996;4.754;2022-12-07T07:30:21;34.53;;;30.17;;
8861;SDS011;4799;50.996;4.754;2022-12-07T07:32:48;34.13;;;28.87;;
8861;SDS011;4799;50.996;4.754;2022-12-07T07:35:14;30.03;;;26.90;;
8861;SDS011;4799;50.996;4.754;2022-12-07T07:37:40;35.90;;;30.73;;
8861;SDS011;4799;50.996;4.754;2022-12-07T07:40:06;29.77;;;26.47;;
8861;SDS011;4799;50.996;4.754;2022-12-07T07:42:33;33.90;;;27.93;;
8861;SDS011;4799;50.996;4.754;2022-12-07T07:44:59;32.23;;;28.47;;
8861;SDS011;4799;50.996;4.754;2022-12-07T07:47:24;36.00;;;28.60;;
8861;SDS011;4799;50.996;4.754;2022-12-07T07:49:50;39.63;;;32.77;;
8861;SDS011;4799;50.996;4.754;2022-12-07T07:52:16;33.73;;;29.73;;
8861;SDS011;4799;50.996;4.754;2022-12-07T07:54:42;44.53;;;36.03;;
8861;SDS011;4799;50.996;4.754;2022-12-07T07:57:07;36.47;;;32.53;;
8861;SDS011;4799;50.996;4.754;2022-12-07T07:59:33;38.47;;;33.73;;
8861;SDS011;4799;50.996;4.754;2022-12-07T08:01:59;42.70;;;36.50;;
8861;SDS011;4799;50.996;4.754;2022-12-07T08:04:24;39.30;;;34.93;;
8861;SDS011;4799;50.996;4.754;2022-12-07T08:06:51;44.57;;;36.07;;
8861;SDS011;4799;50.996;4.754;2022-12-07T08:09:16;40.17;;;35.77;;
8861;SDS011;4799;50.996;4.754;2022-12-07T08:11:42;41.73;;;36.67;;
8861;SDS011;4799;50.996;4.754;2022-12-07T08:14:09;42.83;;;37.07;;
8861;SDS011;4799;50.996;4.754;2022-12-07T08:16:35;46.70;;;40.27;;
8861;SDS011;4799;50.996;4.754;2022-12-07T08:19:03;43.80;;;39.07;;
8861;SDS011;4799;50.996;4.754;2022-12-07T08:21:30;38.50;;;34.47;;
8861;SDS011;4799;50.996;4.754;2022-12-07T08:23:56;38.57;;;34.40;;
8861;SDS011;4799;50.996;4.754;2022-12-07T08:26:22;36.50;;;32.67;;
8861;SDS011;4799;50.996;4.754;2022-12-07T08:28:48;36.43;;;31.50;;
8861;SDS011;4799;50.996;4.754;2022-12-07T08:31:16;33.50;;;30.00;;
8861;SDS011;4799;50.996;4.754;2022-12-07T08:33:44;33.57;;;29.67;;
8861;SDS011;4799;50.996;4.754;2022-12-07T08:36:11;35.57;;;31.73;;
8861;SDS011;4799;50.996;4.754;2022-12-07T08:38:38;36.17;;;30.67;;
8861;SDS011;4799;50.996;4.754;2022-12-07T08:41:06;37.17;;;30.43;;
8861;SDS011;4799;50.996;4.754;2022-12-07T08:43:32;31.00;;;27.77;;
8861;SDS011;4799;50.996;4.754;2022-12-07T08:46:11;30.33;;;27.03;;
8861;SDS011;4799;50.996;4.754;2022-12-07T08:48:45;31.87;;;26.83;;
8861;SDS011;4799;50.996;4.754;2022-12-07T08:51:14;33.70;;;30.10;;
8861;SDS011;4799;50.996;4.754;2022-12-07T08:53:41;37.40;;;31.13;;
8861;SDS011;4799;50.996;4.754;2022-12-07T08:56:08;32.93;;;27.77;;
8861;SDS011;4799;50.996;4.754;2022-12-07T08:58:34;30.93;;;27.63;;
8861;SDS011;4799;50.996;4.754;2022-12-07T09:01:03;32.37;;;27.83;;
8861;SDS011;4799;50.996;4.754;2022-12-07T09:03:30;31.23;;;27.87;;
8861;SDS011;4799;50.996;4.754;2022-12-07T09:05:56;31.50;;;28.30;;
8861;SDS011;4799;50.996;4.754;2022-12-07T09:08:22;32.57;;;29.03;;
8861;SDS011;4799;50.996;4.754;2022-12-07T09:10:56;30.77;;;27.07;;
8861;SDS011;4799;50.996;4.754;2022-12-07T09:13:22;31.00;;;27.37;;
8861;SDS011;4799;50.996;4.754;2022-12-07T09:15:48;30.83;;;25.67;;
8861;SDS011;4799;50.996;4.754;2022-12-07T09:18:14;27.70;;;24.83;;
8861;SDS011;4799;50.996;4.754;2022-12-07T09:20:40;31.27;;;24.33;;
8861;SDS011;4799;50.996;4.754;2022-12-07T09:23:06;29.40;;;24.60;;
8861;SDS011;4799;50.996;4.754;2022-12-07T09:25:32;25.63;;;22.87;;
8861;SDS011;4799;50.996;4.754;2022-12-07T09:27:58;24.27;;;21.80;;
8861;SDS011;4799;50.996;4.754;2022-12-07T09:30:25;24.63;;;22.00;;
8861;SDS011;4799;50.996;4.754;2022-12-07T09:32:55;24.20;;;21.77;;
8861;SDS011;4799;50.996;4.754;2022-12-07T09:35:22;24.20;;;21.63;;
8861;SDS011;4799;50.996;4.754;2022-12-07T09:37:48;21.53;;;19.20;;
8861;SDS011;4799;50.996;4.754;2022-12-07T09:40:14;21.87;;;19.57;;
8861;SDS011;4799;50.996;4.754;2022-12-07T09:42:43;22.40;;;19.17;;
8861;SDS011;4799;50.996;4.754;2022-12-07T09:45:26;19.83;;;17.73;;
8861;SDS011;4799;50.996;4.754;2022-12-07T09:48:00;18.47;;;16.57;;
8861;SDS011;4799;50.996;4.754;2022-12-07T09:50:28;21.27;;;17.27;;
8861;SDS011;4799;50.996;4.754;2022-12-07T09:52:58;18.47;;;16.57;;
8861;SDS011;4799;50.996;4.754;2022-12-07T09:55:33;19.67;;;16.07;;
8861;SDS011;4799;50.996;4.754;2022-12-07T09:58:01;19.00;;;16.13;;
8861;SDS011;4799;50.996;4.754;2022-12-07T10:00:26;17.37;;;15.57;;
8861;SDS011;4799;50.996;4.754;2022-12-07T10:03:00;17.27;;;15.47;;
8861;SDS011;4799;50.996;4.754;2022-12-07T10:05:28;19.97;;;15.50;;
8861;SDS011;4799;50.996;4.754;2022-12-07T10:08:00;17.47;;;15.63;;
8861;SDS011;4799;50.996;4.754;2022-12-07T10:10:28;15.97;;;14.33;;
8861;SDS011;4799;50.996;4.754;2022-12-07T10:12:57;16.03;;;13.50;;
8861;SDS011;4799;50.996;4.754;2022-12-07T10:20:59;12.90;;;11.57;;
8861;SDS011;4799;50.996;4.754;2022-12-07T10:23:29;15.20;;;12.97;;
8861;SDS011;4799;50.996;4.754;2022-12-07T10:25:55;13.00;;;11.00;;
8861;SDS011;4799;50.996;4.754;2022-12-07T10:28:21;14.43;;;10.83;;
8861;SDS011;4799;50.996;4.754;2022-12-07T10:30:49;14.57;;;10.10;;
8861;SDS011;4799;50.996;4.754;2022-12-07T10:33:29;14.73;;;10.93;;
8861;SDS011;4799;50.996;4.754;2022-12-07T10:35:57;12.60;;;10.10;;
8861;SDS011;4799;50.996;4.754;2022-12-07T10:38:24;16.97;;;10.27;;
8861;SDS011;4799;50.996;4.754;2022-12-07T10:41:05;13.70;;;9.13;;
8861;SDS011;4799;50.996;4.754;2022-12-07T10:43:31;10.90;;;9.03;;
8861;SDS011;4799;50.996;4.754;2022-12-07T10:46:04;12.40;;;9.00;;
8861;SDS011;4799;50.996;4.754;2022-12-07T10:51:40;12.13;;;8.47;;
8861;SDS011;4799;50.996;4.754;2022-12-07T10:54:17;9.07;;;8.17;;
8861;SDS011;4799;50.996;4.754;2022-12-07T11:16:19;8.57;;;6.97;;
8861;SDS011;4799;50.996;4.754;2022-12-07T11:24:32;9.30;;;6.97;;
8861;SDS011;4799;50.996;4.754;2022-12-07T11:27:17;9.00;;;6.67;;
8861;SDS011;4799;50.996;4.754;2022-12-07T11:30:23;8.00;;;6.47;;
8861;SDS011;4799;50.996;4.754;2022-12-07T11:35:36;9.20;;;6.43;;
8861;SDS011;4799;50.996;4.754;2022-12-07T11:38:37;10.30;;;5.87;;
8861;SDS011;4799;50.996;4.754;2022-12-07T11:41:20;8.30;;;5.20;;
8861;SDS011;4799;50.996;4.754;2022-12-07T11:44:08;7.10;;;5.67;;
8861;SDS011;4799;50.996;4.754;2022-12-07T11:46:50;10.00;;;6.10;;
8861;SDS011;4799;50.996;4.754;2022-12-07T11:49:26;8.20;;;6.20;;
8861;SDS011;4799;50.996;4.754;2022-12-07T11:52:02;10.33;;;6.00;;
8861;SDS011;4799;50.996;4.754;2022-12-07T11:54:39;9.50;;;5.63;;
8861;SDS011;4799;50.996;4.754;2022-12-07T11:57:12;8.60;;;5.20;;
8861;SDS011;4799;50.996;4.754;2022-12-07T11:59:52;9.33;;;5.70;;
8861;SDS011;4799;50.996;4.754;2022-12-07T12:02:26;10.70;;;5.90;;
8861;SDS011;4799;50.996;4.754;2022-12-07T12:05:19;8.70;;;5.77;;
8861;SDS011;4799;50.996;4.754;2022-12-07T12:07:48;9.83;;;5.70;;
8861;SDS011;4799;50.996;4.754;2022-12-07T12:10:38;7.77;;;5.70;;
8861;SDS011;4799;50.996;4.754;2022-12-07T12:25:12;10.97;;;6.17;;
8861;SDS011;4799;50.996;4.754;2022-12-07T12:27:44;10.27;;;6.00;;
8861;SDS011;4799;50.996;4.754;2022-12-07T12:30:46;8.27;;;5.93;;
8861;SDS011;4799;50.996;4.754;2022-12-07T12:33:06;8.67;;;6.73;;
8861;SDS011;4799;50.996;4.754;2022-12-07T12:35:40;9.23;;;6.07;;
8861;SDS011;4799;50.996;4.754;2022-12-07T12:40:55;8.83;;;6.10;;
8861;SDS011;4799;50.996;4.754;2022-12-07T12:51:49;7.00;;;5.03;;
8861;SDS011;4799;50.996;4.754;2022-12-07T12:54:21;6.83;;;4.83;;
8861;SDS011;4799;50.996;4.754;2022-12-07T12:59:32;4.83;;;3.60;;
8861;SDS011;4799;50.996;4.754;2022-12-07T13:02:20;8.53;;;4.23;;
8861;SDS011;4799;50.996;4.754;2022-12-07T13:10:28;6.87;;;4.27;;
8861;SDS011;4799;50.996;4.754;2022-12-07T13:18:23;8.90;;;5.00;;
8861;SDS011;4799;50.996;4.754;2022-12-07T13:28:47;8.90;;;5.77;;
8861;SDS011;4799;50.996;4.754;2022-12-07T13:33:44;4.47;;;3.57;;
8861;SDS011;4799;50.996;4.754;2022-12-07T13:36:17;3.70;;;3.10;;
8861;SDS011;4799;50.996;4.754;2022-12-07T13:38:51;4.13;;;3.30;;
8861;SDS011;4799;50.996;4.754;2022-12-07T13:41:21;5.07;;;3.80;;
8861;SDS011;4799;50.996;4.754;2022-12-07T13:43:50;4.53;;;4.00;;
8861;SDS011;4799;50.996;4.754;2022-12-07T13:46:30;4.83;;;4.17;;
8861;SDS011;4799;50.996;4.754;2022-12-07T13:49:13;6.60;;;4.40;;
8861;SDS011;4799;50.996;4.754;2022-12-07T13:51:46;5.20;;;4.57;;
8861;SDS011;4799;50.996;4.754;2022-12-07T13:54:12;6.70;;;4.97;;
8861;SDS011;4799;50.996;4.754;2022-12-07T13:56:39;5.70;;;5.13;;
8861;SDS011;4799;50.996;4.754;2022-12-07T13:59:05;6.90;;;5.70;;
8861;SDS011;4799;50.996;4.754;2022-12-07T14:01:44;5.73;;;5.20;;
8861;SDS011;4799;50.996;4.754;2022-12-07T14:04:16;8.17;;;5.90;;
8861;SDS011;4799;50.996;4.754;2022-12-07T14:06:48;6.63;;;5.93;;
8861;SDS011;4799;50.996;4.754;2022-12-07T14:09:22;6.83;;;6.30;;
8861;SDS011;4799;50.996;4.754;2022-12-07T14:11:50;7.63;;;6.80;;
8861;SDS011;4799;50.996;4.754;2022-12-07T14:14:20;9.23;;;7.30;;
8861;SDS011;4799;50.996;4.754;2022-12-07T14:19:40;10.57;;;8.77;;
8861;SDS011;4799;50.996;4.754;2022-12-07T14:22:18;8.93;;;6.43;;
8861;SDS011;4799;50.996;4.754;2022-12-07T14:27:53;8.70;;;7.90;;
8861;SDS011;4799;50.996;4.754;2022-12-07T14:30:22;10.47;;;9.47;;
8861;SDS011;4799;50.996;4.754;2022-12-07T14:32:51;10.97;;;9.90;;
8861;SDS011;4799;50.996;4.754;2022-12-07T14:35:28;13.20;;;11.90;;
8861;SDS011;4799;50.996;4.754;2022-12-07T14:37:55;15.33;;;12.80;;
8861;SDS011;4799;50.996;4.754;2022-12-07T14:40:21;12.37;;;11.13;;
8861;SDS011;4799;50.996;4.754;2022-12-07T14:43:34;13.20;;;11.80;;
8861;SDS011;4799;50.996;4.754;2022-12-07T14:45:41;13.57;;;12.27;;
8861;SDS011;4799;50.996;4.754;2022-12-07T14:48:10;14.77;;;13.27;;
8861;SDS011;4799;50.996;4.754;2022-12-07T14:50:38;18.33;;;15.77;;
8861;SDS011;4799;50.996;4.754;2022-12-07T14:53:12;17.73;;;15.83;;
8861;SDS011;4799;50.996;4.754;2022-12-07T14:55:41;17.90;;;16.00;;
8861;SDS011;4799;50.996;4.754;2022-12-07T14:58:11;13.20;;;11.87;;
8861;SDS011;4799;50.996;4.754;2022-12-07T15:00:42;10.00;;;8.87;;
8861;SDS011;4799;50.996;4.754;2022-12-07T15:03:08;7.80;;;7.10;;
8861;SDS011;4799;50.996;4.754;2022-12-07T15:05:34;7.90;;;6.00;;
8861;SDS011;4799;50.996;4.754;2022-12-07T15:08:01;7.53;;;6.40;;
8861;SDS011;4799;50.996;4.754;2022-12-07T15:10:28;7.30;;;5.90;;
8861;SDS011;4799;50.996;4.754;2022-12-07T15:13:00;6.80;;;6.10;;
8861;SDS011;4799;50.996;4.754;2022-12-07T15:15:50;8.10;;;6.87;;
8861;SDS011;4799;50.996;4.754;2022-12-07T15:18:17;8.00;;;7.00;;
8861;SDS011;4799;50.996;4.754;2022-12-07T15:20:44;7.73;;;6.83;;
8861;SDS011;4799;50.996;4.754;2022-12-07T15:23:10;8.47;;;7.60;;
8861;SDS011;4799;50.996;4.754;2022-12-07T15:25:36;8.90;;;8.00;;
8861;SDS011;4799;50.996;4.754;2022-12-07T15:28:05;11.50;;;9.37;;
8861;SDS011;4799;50.996;4.754;2022-12-07T15:30:30;11.67;;;10.13;;
8861;SDS011;4799;50.996;4.754;2022-12-07T15:32:56;10.93;;;9.60;;
8861;SDS011;4799;50.996;4.754;2022-12-07T15:35:22;11.50;;;9.97;;
8861;SDS011;4799;50.996;4.754;2022-12-07T15:37:47;11.00;;;9.90;;
8861;SDS011;4799;50.996;4.754;2022-12-07T15:40:13;11.40;;;10.17;;
8861;SDS011;4799;50.996;4.754;2022-12-07T15:42:39;12.23;;;10.97;;
8861;SDS011;4799;50.996;4.754;2022-12-07T15:45:06;13.93;;;11.90;;
8861;SDS011;4799;50.996;4.754;2022-12-07T15:47:36;13.03;;;11.70;;
8861;SDS011;4799;50.996;4.754;2022-12-07T15:50:05;14.40;;;12.57;;
8861;SDS011;4799;50.996;4.754;2022-12-07T15:52:32;14.43;;;12.33;;
8861;SDS011;4799;50.996;4.754;2022-12-07T15:54:58;12.80;;;11.60;;
8861;SDS011;4799;50.996;4.754;2022-12-07T15:57:28;13.53;;;12.17;;
8861;SDS011;4799;50.996;4.754;2022-12-07T15:59:54;14.80;;;12.00;;
8861;SDS011;4799;50.996;4.754;2022-12-07T16:02:20;14.03;;;12.63;;
8861;SDS011;4799;50.996;4.754;2022-12-07T16:04:47;14.57;;;13.20;;
8861;SDS011;4799;50.996;4.754;2022-12-07T16:07:13;16.23;;;13.40;;
8861;SDS011;4799;50.996;4.754;2022-12-07T16:09:41;15.87;;;14.27;;
8861;SDS011;4799;50.996;4.754;2022-12-07T16:12:07;15.13;;;13.53;;
8861;SDS011;4799;50.996;4.754;2022-12-07T16:14:33;17.20;;;14.93;;
8861;SDS011;4799;50.996;4.754;2022-12-07T16:16:59;17.90;;;15.60;;
8861;SDS011;4799;50.996;4.754;2022-12-07T16:19:25;16.63;;;14.90;;
8861;SDS011;4799;50.996;4.754;2022-12-07T16:21:51;17.60;;;15.80;;
8861;SDS011;4799;50.996;4.754;2022-12-07T16:24:16;17.70;;;15.23;;
8861;SDS011;4799;50.996;4.754;2022-12-07T16:26:42;24.70;;;19.27;;
8861;SDS011;4799;50.996;4.754;2022-12-07T16:29:10;18.70;;;16.60;;
8861;SDS011;4799;50.996;4.754;2022-12-07T16:31:37;20.40;;;16.53;;
8861;SDS011;4799;50.996;4.754;2022-12-07T16:34:03;16.33;;;14.30;;
8861;SDS011;4799;50.996;4.754;2022-12-07T16:36:29;17.23;;;15.50;;
8861;SDS011;4799;50.996;4.754;2022-12-07T16:38:55;14.43;;;13.03;;
8861;SDS011;4799;50.996;4.754;2022-12-07T16:41:22;15.33;;;12.47;;
8861;SDS011;4799;50.996;4.754;2022-12-07T16:43:48;18.17;;;15.20;;
8861;SDS011;4799;50.996;4.754;2022-12-07T16:46:14;17.23;;;13.80;;
8861;SDS011;4799;50.996;4.754;2022-12-07T16:48:40;16.20;;;13.77;;
8861;SDS011;4799;50.996;4.754;2022-12-07T16:51:07;14.23;;;12.73;;
8861;SDS011;4799;50.996;4.754;2022-12-07T16:53:34;14.73;;;12.60;;
8861;SDS011;4799;50.996;4.754;2022-12-07T16:56:02;13.63;;;12.03;;
8861;SDS011;4799;50.996;4.754;2022-12-07T16:58:28;15.97;;;12.23;;
8861;SDS011;4799;50.996;4.754;2022-12-07T17:00:54;14.57;;;13.10;;
8861;SDS011;4799;50.996;4.754;2022-12-07T17:03:20;14.90;;;13.30;;
8861;SDS011;4799;50.996;4.754;2022-12-07T17:05:46;14.30;;;12.87;;
8861;SDS011;4799;50.996;4.754;2022-12-07T17:08:13;15.17;;;12.93;;
8861;SDS011;4799;50.996;4.754;2022-12-07T17:10:40;16.30;;;14.50;;